Time,TemperatureF,DewpointF,PressureIn,WindDirection,WindDirectionDegrees,WindSpeedMPH,WindSpeedGustMPH,Humidity,HourlyPrecipIn,Conditions,Clouds,dailyrainin,SoftwareType,DateUTC
2013-03-02 00:01:00,25.0,22.0,-100.00,North,5,8.0,11.0,87,0.00,,,-99.99,,2013-03-02 06:01:00,
2013-03-02 00:11:00,25.0,22.0,-100.00,North,10,6.0,12.0,88,0.00,,,-99.99,,2013-03-02 06:11:00,
2013-03-02 00:21:00,25.0,22.0,-100.00,North,5,7.0,12.0,87,0.00,,,-99.99,,2013-03-02 06:21:00,
2013-03-02 00:31:00,24.0,22.0,-100.00,NNW,330,6.0,9.0,89,0.00,,,-99.99,,2013-03-02 06:31:00,
2013-03-02 00:41:00,24.0,22.0,-100.00,NNW,330,6.0,9.0,89,0.00,,,-99.99,,2013-03-02 06:41:00,
2013-03-02 00:51:00,25.0,21.0,-100.00,NNE,30,9.0,12.0,85,0.00,,,-99.99,,2013-03-02 06:51:00,
2013-03-02 01:01:00,25.0,21.0,-100.00,NNE,30,9.0,12.0,85,0.00,,,-99.99,,2013-03-02 07:01:00,
2013-03-02 01:11:00,25.0,20.0,-100.00,NE,35,7.0,11.0,82,0.00,,,-99.99,,2013-03-02 07:11:00,
2013-03-02 01:21:00,25.0,21.0,-100.00,North,5,7.0,11.0,84,0.00,,,-99.99,,2013-03-02 07:21:00,
2013-03-02 01:32:00,25.0,20.0,-100.00,NNW,345,5.0,9.0,82,0.00,,,-99.99,,2013-03-02 07:32:00,
2013-03-02 01:42:00,25.0,20.0,-100.00,NNW,345,5.0,9.0,82,0.00,,,-99.99,,2013-03-02 07:42:00,
2013-03-02 01:51:00,24.0,20.0,-100.00,NNW,340,6.0,8.0,84,0.00,,,-99.99,,2013-03-02 07:51:00,
2013-03-02 02:01:00,24.0,20.0,-100.00,NNW,340,6.0,8.0,84,0.00,,,-99.99,,2013-03-02 08:01:00,
2013-03-02 02:11:00,24.0,20.0,-100.00,NNW,345,4.0,7.0,84,0.00,,,-99.99,,2013-03-02 08:11:00,
2013-03-02 02:21:00,24.0,21.0,-100.00,NNW,340,6.0,9.0,85,0.00,,,-99.99,,2013-03-02 08:21:00,
2013-03-02 02:32:00,24.0,21.0,-100.00,NNW,335,6.0,9.0,87,0.00,,,-99.99,,2013-03-02 08:32:00,
2013-03-02 02:42:00,24.0,21.0,-100.00,NNW,335,6.0,9.0,87,0.00,,,-99.99,,2013-03-02 08:42:00,
2013-03-02 02:52:00,24.0,21.0,-100.00,NNW,340,6.0,9.0,89,0.00,,,-99.99,,2013-03-02 08:52:00,
2013-03-02 03:01:00,24.0,21.0,-100.00,NNW,340,6.0,9.0,89,0.00,,,-99.99,,2013-03-02 09:01:00,
2013-03-02 03:11:00,24.0,21.0,-100.00,NNW,335,5.0,9.0,88,0.00,,,-99.99,,2013-03-02 09:11:00,
2013-03-02 03:21:00,24.0,21.0,-100.00,NNW,340,6.0,10.0,87,0.00,,,-99.99,,2013-03-02 09:21:00,
2013-03-02 03:32:00,23.0,21.0,-100.00,North,5,4.0,9.0,92,0.00,,,-99.99,,2013-03-02 09:32:00,
2013-03-02 03:42:00,23.0,21.0,-100.00,North,5,4.0,9.0,92,0.00,,,-99.99,,2013-03-02 09:42:00,
2013-03-02 03:51:00,23.0,22.0,-100.00,North,10,8.0,11.0,94,0.00,,,-99.99,,2013-03-02 09:51:00,
2013-03-02 04:01:00,23.0,22.0,-100.00,North,10,8.0,11.0,94,0.00,,,-99.99,,2013-03-02 10:01:00,
2013-03-02 04:15:00,22.0,21.0,-100.00,NNW,345,5.0,8.0,95,0.00,,,-99.99,,2013-03-02 10:15:00,
2013-03-02 04:21:00,22.0,21.0,-100.00,NNW,345,6.0,10.0,95,0.00,,,-99.99,,2013-03-02 10:21:00,
2013-03-02 04:32:00,19.0,18.0,-100.00,NNW,335,9.0,15.0,95,0.00,,,-99.99,,2013-03-02 10:32:00,
2013-03-02 04:42:00,19.0,18.0,-100.00,NNW,335,9.0,15.0,95,0.00,,,-99.99,,2013-03-02 10:42:00,
2013-03-02 04:51:00,18.0,17.0,-100.00,NNW,340,9.0,14.0,95,0.00,,,-99.99,,2013-03-02 10:51:00,
2013-03-02 05:01:00,18.0,17.0,-100.00,NNW,340,9.0,14.0,95,0.00,,,-99.99,,2013-03-02 11:01:00,
2013-03-02 05:11:00,18.0,17.0,-100.00,North,5,5.0,10.0,95,0.00,,,-99.99,,2013-03-02 11:11:00,
2013-03-02 05:21:00,18.0,16.0,-100.00,North,0,5.0,11.0,95,0.00,,,-99.99,,2013-03-02 11:21:00,
2013-03-02 05:32:00,15.0,14.0,-100.00,NNW,330,4.0,5.0,95,0.00,,,-99.99,,2013-03-02 11:32:00,
2013-03-02 05:41:00,15.0,14.0,-100.00,NNW,330,4.0,5.0,95,0.00,,,-99.99,,2013-03-02 11:41:00,
2013-03-02 05:52:00,14.0,13.0,-100.00,NNW,330,6.0,6.0,95,0.00,,,-99.99,,2013-03-02 11:52:00,
2013-03-02 06:02:00,14.0,13.0,-100.00,NNW,330,6.0,6.0,95,0.00,,,-99.99,,2013-03-02 12:02:00,
2013-03-02 06:11:00,14.0,13.0,-100.00,NW,325,6.0,7.0,95,0.00,,,-99.99,,2013-03-02 12:11:00,
2013-03-02 06:21:00,14.0,13.0,-100.00,NNW,335,6.0,9.0,95,0.00,,,-99.99,,2013-03-02 12:21:00,
2013-03-02 06:33:00,15.0,13.0,-100.00,NNW,335,6.0,9.0,95,0.00,,,-99.99,,2013-03-02 12:33:00,
2013-03-02 06:43:00,15.0,13.0,-100.00,NNW,335,6.0,9.0,95,0.00,,,-99.99,,2013-03-02 12:43:00,
2013-03-02 06:53:00,14.0,13.0,-100.00,NNW,340,6.0,9.0,95,0.00,,,-99.99,,2013-03-02 12:53:00,
2013-03-02 07:01:00,14.0,13.0,-100.00,NNW,340,6.0,9.0,95,0.00,,,-99.99,,2013-03-02 13:01:00,
2013-03-02 07:11:00,13.0,12.0,-100.00,NNW,335,6.0,7.0,95,0.00,,,-99.99,,2013-03-02 13:11:00,
2013-03-02 07:21:00,14.0,13.0,-100.00,NNW,335,5.0,7.0,95,0.00,,,-99.99,,2013-03-02 13:21:00,
2013-03-02 07:32:00,14.0,13.0,-100.00,NNW,330,4.0,7.0,95,0.00,,,-99.99,,2013-03-02 13:32:00,
2013-03-02 07:41:00,14.0,13.0,-100.00,NNW,330,4.0,6.0,95,0.00,,,-99.99,,2013-03-02 13:41:00,
2013-03-02 07:52:00,15.0,14.0,-100.00,NNW,330,4.0,7.0,95,0.00,,,-99.99,,2013-03-02 13:52:00,
2013-03-02 08:01:00,15.0,14.0,-100.00,NNW,330,4.0,7.0,95,0.00,,,-99.99,,2013-03-02 14:01:00,
2013-03-02 08:11:00,15.0,14.0,-100.00,NW,325,5.0,9.0,95,0.00,,,-99.99,,2013-03-02 14:11:00,
2013-03-02 08:21:00,16.0,15.0,-100.00,NNW,330,7.0,10.0,95,0.00,,,-99.99,,2013-03-02 14:21:00,
2013-03-02 08:32:00,16.0,15.0,-100.00,NNW,335,6.0,12.0,95,0.00,,,-99.99,,2013-03-02 14:32:00,
2013-03-02 08:42:00,17.0,16.0,-100.00,NNW,340,11.0,14.0,95,0.00,,,-99.99,,2013-03-02 14:42:00,
2013-03-02 08:52:00,17.0,16.0,-100.00,NNW,330,7.0,11.0,95,0.00,,,-99.99,,2013-03-02 14:52:00,
2013-03-02 09:02:00,17.0,16.0,-100.00,NNW,330,7.0,11.0,95,0.00,,,-99.99,,2013-03-02 15:02:00,
2013-03-02 09:11:00,18.0,17.0,-100.00,North,350,5.0,12.0,95,0.00,,,-99.99,,2013-03-02 15:11:00,
2013-03-02 09:21:00,18.0,17.0,-100.00,NNW,335,7.0,12.0,95,0.00,,,-99.99,,2013-03-02 15:21:00,
2013-03-02 09:32:00,18.0,17.0,-100.00,NNW,340,10.0,12.0,94,0.00,,,-99.99,,2013-03-02 15:32:00,
2013-03-02 09:41:00,18.0,17.0,-100.00,NNW,345,8.0,12.0,95,0.00,,,-99.99,,2013-03-02 15:41:00,
2013-03-02 09:52:00,18.0,17.0,-100.00,NNW,340,11.0,13.0,92,0.00,,,-99.99,,2013-03-02 15:52:00,
2013-03-02 10:01:00,18.0,17.0,-100.00,NNW,340,11.0,13.0,92,0.00,,,-99.99,,2013-03-02 16:01:00,
2013-03-02 10:11:00,18.0,17.0,-100.00,NNW,335,7.0,14.0,92,0.00,,,-99.99,,2013-03-02 16:11:00,
2013-03-02 10:21:00,19.0,17.0,-100.00,North,10,8.0,11.0,93,0.00,,,-99.99,,2013-03-02 16:21:00,
2013-03-02 10:32:00,19.0,17.0,-100.00,North,5,7.0,12.0,92,0.00,,,-99.99,,2013-03-02 16:32:00,
2013-03-02 10:41:00,20.0,17.0,-100.00,NNW,330,7.0,11.0,87,0.00,,,-99.99,,2013-03-02 16:41:00,
2013-03-02 10:51:00,21.0,18.0,-100.00,NNW,330,7.0,12.0,86,0.00,,,-99.99,,2013-03-02 16:51:00,
2013-03-02 11:01:00,21.0,18.0,-100.00,NNW,330,7.0,12.0,86,0.00,,,-99.99,,2013-03-02 17:01:00,
2013-03-02 11:11:00,21.0,18.0,-100.00,NNW,340,6.0,9.0,85,0.00,,,-99.99,,2013-03-02 17:11:00,
2013-03-02 11:21:00,22.0,18.0,-100.00,NNW,330,6.0,9.0,84,0.00,,,-99.99,,2013-03-02 17:21:00,
2013-03-02 11:32:00,23.0,19.0,-100.00,NNE,15,6.0,9.0,85,0.00,,,-99.99,,2013-03-02 17:32:00,
2013-03-02 11:42:00,23.0,19.0,-100.00,NNE,15,6.0,9.0,85,0.00,,,-99.99,,2013-03-02 17:42:00,
2013-03-02 11:52:00,24.0,19.0,-100.00,North,10,4.0,9.0,83,0.00,,,-99.99,,2013-03-02 17:52:00,
2013-03-02 12:02:00,24.0,19.0,-100.00,North,10,4.0,9.0,83,0.00,,,-99.99,,2013-03-02 18:02:00,
2013-03-02 12:11:00,24.0,19.0,-100.00,NNE,15,4.0,8.0,82,0.00,,,-99.99,,2013-03-02 18:11:00,
2013-03-02 12:22:00,24.0,19.0,-100.00,North,0,4.0,7.0,82,0.00,,,-99.99,,2013-03-02 18:22:00,
2013-03-02 12:32:00,24.0,19.0,-100.00,North,10,4.0,8.0,80,0.00,,,-99.99,,2013-03-02 18:32:00,
2013-03-02 12:42:00,25.0,19.0,-100.00,North,5,2.0,7.0,80,0.00,,,-99.99,,2013-03-02 18:42:00,
2013-03-02 12:52:00,25.0,19.0,-100.00,NNW,330,4.0,7.0,78,0.00,,,-99.99,,2013-03-02 18:52:00,
2013-03-02 13:01:00,25.0,19.0,-100.00,NNW,330,4.0,7.0,78,0.00,,,-99.99,,2013-03-02 19:01:00,
2013-03-02 13:11:00,26.0,20.0,-100.00,North,10,4.0,8.0,78,0.00,,,-99.99,,2013-03-02 19:11:00,
2013-03-02 13:21:00,26.0,20.0,-100.00,North,5,4.0,7.0,79,0.00,,,-99.99,,2013-03-02 19:21:00,
2013-03-02 13:32:00,26.0,20.0,-100.00,NNW,330,7.0,9.0,75,0.00,,,-99.99,,2013-03-02 19:32:00,
2013-03-02 13:42:00,26.0,20.0,-100.00,NNW,330,7.0,9.0,75,0.00,,,-99.99,,2013-03-02 19:42:00,
2013-03-02 13:52:00,27.0,19.0,-100.00,NNW,330,6.0,11.0,72,0.00,,,-99.99,,2013-03-02 19:52:00,
2013-03-02 14:01:00,27.0,19.0,-100.00,NNW,330,6.0,11.0,72,0.00,,,-99.99,,2013-03-02 20:01:00,
2013-03-02 14:11:00,27.0,20.0,-100.00,NNE,20,7.0,12.0,73,0.00,,,-99.99,,2013-03-02 20:11:00,
2013-03-02 14:21:00,27.0,20.0,-100.00,North,5,7.0,11.0,72,0.00,,,-99.99,,2013-03-02 20:21:00,
2013-03-02 14:32:00,27.0,18.0,-100.00,NNW,340,9.0,12.0,67,0.00,,,-99.99,,2013-03-02 20:32:00,
2013-03-02 14:42:00,27.0,18.0,-100.00,NNW,340,9.0,12.0,67,0.00,,,-99.99,,2013-03-02 20:42:00,
2013-03-02 14:52:00,27.0,18.0,-100.00,NNW,335,11.0,14.0,65,0.00,,,-99.99,,2013-03-02 20:52:00,
2013-03-02 15:02:00,27.0,18.0,-100.00,NNW,335,11.0,14.0,65,0.00,,,-99.99,,2013-03-02 21:02:00,
2013-03-02 15:11:00,27.0,17.0,-100.00,NNW,345,9.0,14.0,64,0.00,,,-99.99,,2013-03-02 21:11:00,
2013-03-02 15:22:00,27.0,17.0,-100.00,NNW,345,8.0,14.0,64,0.00,,,-99.99,,2013-03-02 21:22:00,
2013-03-02 15:32:00,28.0,17.0,-100.00,NNW,345,9.0,12.0,64,0.00,,,-99.99,,2013-03-02 21:32:00,
2013-03-02 15:42:00,28.0,17.0,-100.00,NNW,345,7.0,12.0,64,0.00,,,-99.99,,2013-03-02 21:42:00,
2013-03-02 15:52:00,28.0,17.0,-100.00,NNW,340,6.0,9.0,63,0.00,,,-99.99,,2013-03-02 21:52:00,
2013-03-02 16:02:00,28.0,17.0,-100.00,NNW,340,6.0,9.0,63,0.00,,,-99.99,,2013-03-02 22:02:00,
2013-03-02 16:11:00,28.0,17.0,-100.00,North,5,6.0,10.0,64,0.00,,,-99.99,,2013-03-02 22:11:00,
2013-03-02 16:21:00,28.0,17.0,-100.00,NNW,335,7.0,11.0,64,0.00,,,-99.99,,2013-03-02 22:21:00,
2013-03-02 16:32:00,28.0,18.0,-100.00,NNW,340,6.0,11.0,66,0.00,,,-99.99,,2013-03-02 22:32:00,
2013-03-02 16:42:00,28.0,19.0,-100.00,NNW,345,4.0,9.0,68,0.00,,,-99.99,,2013-03-02 22:42:00,
2013-03-02 16:51:00,28.0,18.0,-100.00,NNW,335,5.0,7.0,67,0.00,,,-99.99,,2013-03-02 22:51:00,
2013-03-02 17:01:00,28.0,18.0,-100.00,NNW,335,5.0,7.0,67,0.00,,,-99.99,,2013-03-02 23:01:00,
2013-03-02 17:11:00,27.0,18.0,-100.00,NNW,330,4.0,6.0,68,0.00,,,-99.99,,2013-03-02 23:11:00,
2013-03-02 17:21:00,28.0,19.0,-100.00,NNW,335,4.0,6.0,68,0.00,,,-99.99,,2013-03-02 23:21:00,
2013-03-02 17:32:00,26.0,18.0,-100.00,NNE,20,3.0,7.0,71,0.00,,,-99.99,,2013-03-02 23:32:00,
2013-03-02 17:42:00,26.0,18.0,-100.00,NNE,20,3.0,7.0,71,0.00,,,-99.99,,2013-03-02 23:42:00,
2013-03-02 17:52:00,26.0,18.0,-100.00,NNE,30,3.0,6.0,70,0.00,,,-99.99,,2013-03-02 23:52:00,
2013-03-02 18:02:00,26.0,18.0,-100.00,NNE,30,3.0,6.0,70,0.00,,,-99.99,,2013-03-03 00:02:00,
2013-03-02 18:11:00,25.0,18.0,-100.00,North,0,2.0,4.0,73,0.00,,,-99.99,,2013-03-03 00:11:00,
2013-03-02 18:22:00,25.0,18.0,-100.00,NNE,20,1.0,4.0,74,0.00,,,-99.99,,2013-03-03 00:22:00,
2013-03-02 18:32:00,23.0,18.0,-100.00,North,10,1.0,4.0,78,0.00,,,-99.99,,2013-03-03 00:32:00,
2013-03-02 18:42:00,23.0,18.0,-100.00,North,10,1.0,4.0,78,0.00,,,-99.99,,2013-03-03 00:42:00,
2013-03-02 18:52:00,23.0,18.0,-100.00,NNE,25,0.0,1.0,81,0.00,,,-99.99,,2013-03-03 00:52:00,
2013-03-02 19:01:00,23.0,18.0,-100.00,NNE,25,0.0,1.0,81,0.00,,,-99.99,,2013-03-03 01:01:00,
2013-03-02 19:11:00,23.0,18.0,-100.00,ENE,65,0.0,1.0,82,0.00,,,-99.99,,2013-03-03 01:11:00,
2013-03-02 19:21:00,23.0,18.0,-100.00,ENE,75,1.0,2.0,82,0.00,,,-99.99,,2013-03-03 01:21:00,
2013-03-02 19:32:00,22.0,18.0,-100.00,ENE,75,1.0,2.0,85,0.00,,,-99.99,,2013-03-03 01:32:00,
2013-03-02 19:41:00,22.0,19.0,-100.00,ENE,65,0.0,0.0,88,0.00,,,-99.99,,2013-03-03 01:41:00,
2013-03-02 19:52:00,21.0,19.0,-100.00,SSE,165,1.0,1.0,93,0.00,,,-99.99,,2013-03-03 01:52:00,
2013-03-02 20:01:00,21.0,19.0,-100.00,SSE,165,1.0,1.0,93,0.00,,,-99.99,,2013-03-03 02:01:00,
2013-03-02 20:11:00,20.0,18.0,-100.00,SSE,160,2.0,2.0,93,0.00,,,-99.99,,2013-03-03 02:11:00,
2013-03-02 20:21:00,19.0,18.0,-100.00,SSE,155,1.0,2.0,95,0.00,,,-99.99,,2013-03-03 02:21:00,
2013-03-02 20:32:00,18.0,17.0,-100.00,SSE,160,1.0,1.0,95,0.00,,,-99.99,,2013-03-03 02:32:00,
2013-03-02 20:41:00,18.0,17.0,-100.00,SSE,160,1.0,2.0,95,0.00,,,-99.99,,2013-03-03 02:41:00,
2013-03-02 20:52:00,16.0,15.0,-100.00,West,280,1.0,2.0,95,0.00,,,-99.99,,2013-03-03 02:52:00,
2013-03-02 21:01:00,16.0,15.0,-100.00,West,280,1.0,2.0,95,0.00,,,-99.99,,2013-03-03 03:01:00,
2013-03-02 21:11:00,17.0,16.0,-100.00,WNW,285,2.0,3.0,95,0.00,,,-99.99,,2013-03-03 03:11:00,
2013-03-02 21:21:00,17.0,16.0,-100.00,NW,310,1.0,3.0,95,0.00,,,-99.99,,2013-03-03 03:21:00,
2013-03-02 21:31:00,16.0,15.0,-100.00,NNW,340,0.0,1.0,95,0.00,,,-99.99,,2013-03-03 03:31:00,
2013-03-02 21:41:00,16.0,15.0,-100.00,ENE,70,1.0,1.0,95,0.00,,,-99.99,,2013-03-03 03:41:00,
2013-03-02 21:51:00,15.0,13.0,-100.00,East,90,1.0,1.0,95,0.00,,,-99.99,,2013-03-03 03:51:00,
2013-03-02 22:01:00,15.0,13.0,-100.00,East,90,1.0,1.0,95,0.00,,,-99.99,,2013-03-03 04:01:00,
2013-03-02 22:11:00,14.0,13.0,-100.00,East,90,0.0,1.0,95,0.00,,,-99.99,,2013-03-03 04:11:00,
2013-03-02 22:21:00,14.0,13.0,-100.00,East,90,0.0,0.0,95,0.00,,,-99.99,,2013-03-03 04:21:00,
2013-03-02 22:31:00,13.0,12.0,-100.00,ESE,105,1.0,1.0,95,0.00,,,-99.99,,2013-03-03 04:31:00,
2013-03-02 22:41:00,13.0,12.0,-100.00,ESE,105,1.0,1.0,95,0.00,,,-99.99,,2013-03-03 04:41:00,
2013-03-02 22:51:00,14.0,13.0,-100.00,ESE,105,1.0,1.0,95,0.00,,,-99.99,,2013-03-03 04:51:00,
2013-03-02 23:02:00,14.0,13.0,-100.00,ESE,105,1.0,1.0,95,0.00,,,-99.99,,2013-03-03 05:02:00,
2013-03-02 23:11:00,15.0,13.0,-100.00,SE,145,1.0,2.0,95,0.00,,,-99.99,,2013-03-03 05:11:00,
2013-03-02 23:22:00,15.0,14.0,-100.00,SE,135,0.0,2.0,95,0.00,,,-99.99,,2013-03-03 05:22:00,
2013-03-02 23:32:00,15.0,13.0,-100.00,ESE,120,0.0,1.0,95,0.00,,,-99.99,,2013-03-03 05:32:00,
2013-03-02 23:42:00,15.0,14.0,-100.00,SE,125,1.0,1.0,95,0.00,,,-99.99,,2013-03-03 05:42:00,
2013-03-02 23:52:00,15.0,13.0,-100.00,East,80,1.0,3.0,95,0.00,,,-99.99,,2013-03-03 05:52:00,